createdAt,value
2019-03-01T00:01:11.556Z,1.70
2019-03-01T00:03:45.030Z,2.00
2019-03-01T00:06:20.283Z,1.50
2019-03-01T00:09:18.340Z,1.70
2019-03-01T00:12:18.892Z,1.90
2019-03-01T00:15:10.456Z,2.10
2019-03-01T00:17:54.181Z,1.80
2019-03-01T00:20:52.300Z,1.80
2019-03-01T00:23:39.321Z,1.73
2019-03-01T00:26:23.408Z,1.90
2019-03-01T00:29:26.327Z,2.53
2019-03-01T00:32:15.109Z,1.43
2019-03-01T00:35:06.718Z,2.70
2019-03-01T00:37:50.282Z,1.90
2019-03-01T00:40:27.944Z,2.50
2019-03-01T00:43:09.367Z,1.83
2019-03-01T00:45:42.340Z,1.43
2019-03-01T00:48:15.608Z,1.40
2019-03-01T00:50:48.572Z,1.50
2019-03-01T00:53:23.148Z,1.60
2019-03-01T00:55:55.888Z,1.20
2019-03-01T00:58:29.113Z,1.60
2019-03-01T01:01:01.963Z,1.90
2019-03-01T01:03:35.079Z,1.70
2019-03-01T01:06:07.978Z,1.63
2019-03-01T01:08:41.199Z,1.73
2019-03-01T01:11:14.081Z,1.80
2019-03-01T01:13:50.134Z,1.83
2019-03-01T01:16:23.127Z,1.50
2019-03-01T01:18:56.275Z,1.33
2019-03-01T01:21:29.286Z,1.60
2019-03-01T01:24:04.077Z,1.53
2019-03-01T01:26:37.285Z,1.97
2019-03-01T01:29:11.633Z,1.77
2019-03-01T01:31:46.446Z,1.80
2019-03-01T01:34:19.330Z,1.93
2019-03-01T01:36:52.357Z,1.50
2019-03-01T01:39:25.437Z,1.30
2019-03-01T01:41:59.561Z,1.67
2019-03-01T01:44:32.513Z,1.83
2019-03-01T01:47:06.145Z,2.67
2019-03-01T01:49:40.243Z,7.10
2019-03-01T01:52:17.273Z,2.20
2019-03-01T01:54:50.385Z,2.07
2019-03-01T01:57:23.389Z,2.47
2019-03-01T01:59:56.498Z,1.67
2019-03-01T02:05:45.223Z,2.67
2019-03-01T02:14:55.612Z,1.70
2019-03-01T02:17:28.740Z,1.60
2019-03-01T02:20:02.486Z,1.33
2019-03-01T02:22:35.611Z,1.70
2019-03-01T02:25:10.253Z,2.27
2019-03-01T02:27:43.360Z,1.70
2019-03-01T02:30:25.510Z,1.70
2019-03-01T02:32:59.234Z,2.30
2019-03-01T02:35:32.443Z,1.60
2019-03-01T02:38:09.971Z,1.83
2019-03-01T02:40:43.171Z,2.60
2019-03-01T02:43:16.120Z,1.90
2019-03-01T02:45:50.543Z,1.60
2019-03-01T02:48:25.593Z,1.80
2019-03-01T02:51:03.103Z,1.40
2019-03-01T02:53:36.295Z,1.53
2019-03-01T02:56:23.653Z,2.10
2019-03-01T02:59:02.164Z,1.57
2019-03-01T03:01:39.573Z,1.93
2019-03-01T03:04:41.259Z,2.57
2019-03-01T03:07:19.651Z,2.07
2019-03-01T03:10:28.596Z,1.70
2019-03-01T03:13:34.549Z,1.73
2019-03-01T03:35:07.366Z,2.20
2019-03-01T03:41:17.204Z,1.70
2019-03-01T03:44:08.012Z,1.90
2019-03-01T03:50:51.885Z,1.80
2019-03-01T04:18:23.811Z,1.77
2019-03-01T04:21:23.737Z,1.90
2019-03-01T04:23:53.810Z,1.83
2019-03-01T04:29:33.529Z,1.70
2019-03-01T04:32:51.665Z,2.17
2019-03-01T04:48:32.449Z,1.90
2019-03-01T04:51:20.397Z,1.60
2019-03-01T04:53:52.638Z,2.10
2019-03-01T04:56:28.370Z,1.93
2019-03-01T04:59:04.526Z,2.27
2019-03-01T05:01:38.198Z,2.90
2019-03-01T05:04:12.219Z,2.27
2019-03-01T05:06:46.896Z,2.53
2019-03-01T05:09:20.114Z,2.40
2019-03-01T05:11:57.188Z,2.30
2019-03-01T05:14:31.046Z,2.70
2019-03-01T05:19:56.670Z,2.70
2019-03-01T05:22:29.311Z,2.60
2019-03-01T05:25:02.634Z,2.53
2019-03-01T05:27:35.802Z,2.80
2019-03-01T05:30:11.564Z,3.10
2019-03-01T05:32:47.660Z,2.27
2019-03-01T05:35:20.556Z,2.43
2019-03-01T05:37:53.655Z,2.70
2019-03-01T05:40:27.108Z,2.30
2019-03-01T05:42:59.868Z,3.60
2019-03-01T05:45:33.585Z,2.70
2019-03-01T05:48:13.829Z,2.47
2019-03-01T05:51:34.703Z,3.03
2019-03-01T05:53:30.958Z,3.00
2019-03-01T05:56:03.850Z,2.60
2019-03-01T05:58:39.255Z,3.03
2019-03-01T06:01:18.318Z,2.60
2019-03-01T06:10:52.904Z,2.80
2019-03-01T06:13:48.465Z,2.57
2019-03-01T06:16:35.880Z,2.53
2019-03-01T06:19:16.368Z,3.23
2019-03-01T06:22:03.434Z,2.20
2019-03-01T06:24:44.548Z,2.30
2019-03-01T06:27:44.950Z,2.57
2019-03-01T06:30:32.098Z,2.90
2019-03-01T06:33:16.608Z,2.50
2019-03-01T06:36:09.576Z,2.80
2019-03-01T06:39:03.614Z,2.53
2019-03-01T06:41:57.908Z,3.00
2019-03-01T06:45:03.142Z,2.90
2019-03-01T06:47:48.963Z,2.50
2019-03-01T06:50:23.414Z,2.10
2019-03-01T06:52:56.665Z,2.53
2019-03-01T06:55:43.256Z,2.40
2019-03-01T06:58:18.087Z,2.30
2019-03-01T07:00:52.054Z,2.83
2019-03-01T07:03:25.087Z,2.37
2019-03-01T07:06:03.290Z,2.70
2019-03-01T07:08:31.990Z,2.53
2019-03-01T07:11:07.483Z,3.10
2019-03-01T07:13:40.942Z,2.50
2019-03-01T07:16:14.049Z,2.60
2019-03-01T07:19:01.640Z,2.40
2019-03-01T07:21:37.543Z,2.10
2019-03-01T07:24:10.697Z,2.40
2019-03-01T07:26:43.668Z,2.20
2019-03-01T07:29:17.140Z,2.63
2019-03-01T07:31:51.156Z,2.30
2019-03-01T07:34:24.611Z,2.97
2019-03-01T07:36:57.599Z,2.33
2019-03-01T07:39:30.787Z,2.70
2019-03-01T07:42:03.916Z,2.03
2019-03-01T07:44:36.836Z,2.20
2019-03-01T07:47:09.812Z,2.90
2019-03-01T07:49:42.772Z,3.20
2019-03-01T07:52:16.925Z,2.63
2019-03-01T07:54:52.932Z,2.37
2019-03-01T08:00:24.240Z,2.70
2019-03-01T08:02:57.056Z,2.73
2019-03-01T08:05:35.459Z,2.73
2019-03-01T08:08:11.255Z,2.60
2019-03-01T08:10:44.269Z,2.97
2019-03-01T08:13:17.563Z,3.00
2019-03-01T08:15:51.472Z,4.40
2019-03-01T08:18:24.446Z,3.80
2019-03-01T08:20:58.470Z,3.40
2019-03-01T08:23:31.717Z,2.27
2019-03-01T08:26:05.003Z,2.57
2019-03-01T08:28:37.943Z,2.20
2019-03-01T08:31:11.988Z,2.57
2019-03-01T08:33:45.092Z,2.43
2019-03-01T08:36:25.390Z,2.83
2019-03-01T08:39:00.997Z,2.53
2019-03-01T08:41:34.032Z,2.13
2019-03-01T08:44:07.746Z,2.33
2019-03-01T08:46:41.979Z,2.43
2019-03-01T08:49:46.441Z,2.70
2019-03-01T08:51:58.445Z,2.77
2019-03-01T08:54:31.101Z,2.50
2019-03-01T08:57:04.280Z,2.50
2019-03-01T08:59:37.453Z,2.60
2019-03-01T09:02:11.836Z,2.60
2019-03-01T09:04:50.972Z,2.77
2019-03-01T09:07:19.938Z,2.40
2019-03-01T09:09:53.690Z,2.40
2019-03-01T09:12:28.683Z,2.23
2019-03-01T09:15:07.157Z,2.57
2019-03-01T09:17:42.870Z,2.23
2019-03-01T09:20:21.299Z,3.07
2019-03-01T09:23:19.730Z,2.47
2019-03-01T09:25:49.671Z,2.63
2019-03-01T09:28:23.110Z,2.30
2019-03-01T09:30:56.324Z,3.10
2019-03-01T09:33:29.463Z,3.30
2019-03-01T09:36:06.315Z,3.40
2019-03-01T09:38:42.609Z,3.57
2019-03-01T09:41:13.935Z,2.33
2019-03-01T09:43:49.979Z,2.43
2019-03-01T09:46:24.813Z,2.80
2019-03-01T09:48:58.929Z,3.43
2019-03-01T09:51:31.759Z,2.23
2019-03-01T09:54:06.543Z,2.63
2019-03-01T09:56:38.620Z,3.20
2019-03-01T09:59:11.697Z,3.00
2019-03-01T10:01:45.032Z,2.73
2019-03-01T10:04:17.973Z,2.73
2019-03-01T10:06:50.727Z,2.17
2019-03-01T10:09:23.779Z,2.20
2019-03-01T10:11:57.775Z,2.43
2019-03-01T10:14:30.886Z,2.90
2019-03-01T10:17:06.198Z,2.60
2019-03-01T10:19:39.529Z,2.60
2019-03-01T10:22:12.333Z,2.70
2019-03-01T10:24:45.447Z,3.40
2019-03-01T10:27:18.954Z,3.30
2019-03-01T10:29:52.305Z,2.57
2019-03-01T10:32:24.846Z,2.53
2019-03-01T10:35:01.419Z,2.70
2019-03-01T10:37:37.766Z,2.00
2019-03-01T10:40:13.223Z,3.00
2019-03-01T10:42:48.639Z,3.10
2019-03-01T10:45:30.341Z,2.20
2019-03-01T10:48:03.392Z,2.67
2019-03-01T10:50:36.295Z,2.33
2019-03-01T10:53:09.271Z,2.47
2019-03-01T10:55:42.072Z,2.50
2019-03-01T10:58:15.005Z,2.80
2019-03-01T11:00:47.786Z,3.20
2019-03-01T11:03:21.638Z,3.77
2019-03-01T11:05:54.430Z,2.70
2019-03-01T11:08:27.675Z,2.40
2019-03-01T11:11:00.283Z,3.33
2019-03-01T11:13:33.271Z,2.70
2019-03-01T11:16:06.644Z,2.63
2019-03-01T11:18:39.617Z,3.63
2019-03-01T11:21:13.504Z,2.70
2019-03-01T11:23:46.532Z,3.17
2019-03-01T11:26:19.597Z,2.30
2019-03-01T11:28:52.188Z,2.40
2019-03-01T11:31:24.943Z,2.47
2019-03-01T11:33:58.052Z,2.27
2019-03-01T11:36:30.967Z,2.50
2019-03-01T11:39:04.612Z,2.83
2019-03-01T11:41:37.524Z,2.57
2019-03-01T11:44:11.007Z,3.00
2019-03-01T11:46:43.712Z,2.87
2019-03-01T11:49:17.168Z,2.60
2019-03-01T11:51:51.012Z,2.63
2019-03-01T11:54:24.407Z,3.03
2019-03-01T11:56:57.809Z,2.50
2019-03-01T11:59:33.848Z,2.40
2019-03-01T12:02:06.729Z,2.37
2019-03-01T12:04:40.268Z,2.70
2019-03-01T12:07:13.034Z,3.03
2019-03-01T12:09:46.319Z,2.53
2019-03-01T12:12:19.141Z,2.60
2019-03-01T12:14:52.384Z,2.57
2019-03-01T12:17:25.197Z,2.83
2019-03-01T12:19:58.182Z,3.80
2019-03-01T12:22:31.145Z,2.87
2019-03-01T12:25:05.054Z,2.20
2019-03-01T12:27:37.728Z,3.20
2019-03-01T12:30:12.776Z,2.67
2019-03-01T12:32:45.756Z,2.70
2019-03-01T12:35:18.595Z,3.60
2019-03-01T12:37:51.545Z,3.00
2019-03-01T12:40:26.342Z,3.07
2019-03-01T12:42:59.471Z,3.20
2019-03-01T12:45:32.335Z,3.53
2019-03-01T12:48:05.417Z,2.80
2019-03-01T12:50:38.298Z,2.63
2019-03-01T12:53:11.289Z,3.60
2019-03-01T12:55:44.143Z,3.20
2019-03-01T12:58:19.688Z,3.13
2019-03-01T13:00:51.083Z,3.10
2019-03-01T13:03:24.115Z,3.57
2019-03-01T13:05:57.144Z,3.23
2019-03-01T13:08:30.101Z,3.57
2019-03-01T13:11:03.234Z,3.07
2019-03-01T13:13:38.329Z,3.50
2019-03-01T13:16:10.411Z,2.60
2019-03-01T13:18:43.507Z,2.87
2019-03-01T13:21:16.601Z,3.70
2019-03-01T13:23:49.608Z,3.80
2019-03-01T13:26:22.530Z,3.20
2019-03-01T13:28:55.191Z,2.77
2019-03-01T13:31:28.080Z,3.10
2019-03-01T13:34:02.137Z,2.20
2019-03-01T13:36:36.155Z,2.83
2019-03-01T13:39:10.470Z,2.43
2019-03-01T13:41:43.529Z,2.73
2019-03-01T13:44:16.612Z,2.67
2019-03-01T13:46:49.346Z,2.83
2019-03-01T13:49:23.039Z,3.00
2019-03-01T13:51:55.727Z,2.90
2019-03-01T13:54:29.792Z,2.77
2019-03-01T13:57:02.607Z,5.17
2019-03-01T13:59:37.529Z,3.00
2019-03-01T14:02:11.395Z,2.50
2019-03-01T14:04:44.137Z,3.50
2019-03-01T14:07:17.199Z,3.20
2019-03-01T14:09:50.103Z,2.40
2019-03-01T14:12:23.150Z,2.67
2019-03-01T14:14:56.066Z,3.17
2019-03-01T14:17:29.121Z,2.57
2019-03-01T14:20:02.051Z,2.60
2019-03-01T14:22:36.252Z,2.57
2019-03-01T14:25:10.234Z,3.00
2019-03-01T14:27:43.126Z,2.13
2019-03-01T14:30:17.582Z,2.53
2019-03-01T14:32:50.584Z,3.07
2019-03-01T14:35:25.820Z,2.40
2019-03-01T14:37:57.688Z,2.67
2019-03-01T14:40:30.565Z,2.70
2019-03-01T14:43:04.321Z,2.83
2019-03-01T14:45:38.217Z,3.00
2019-03-01T14:48:12.085Z,3.10
2019-03-01T14:50:44.858Z,2.47
2019-03-01T14:53:17.974Z,2.40
2019-03-01T14:55:58.874Z,3.00
2019-03-01T14:58:34.742Z,3.30
2019-03-01T15:01:09.853Z,2.90
2019-03-01T15:03:42.716Z,3.80
2019-03-01T15:06:18.704Z,2.47
2019-03-01T15:08:49.712Z,3.23
2019-03-01T15:11:23.152Z,3.17
2019-03-01T15:13:56.065Z,2.33
2019-03-01T15:16:29.156Z,2.70
2019-03-01T15:19:04.767Z,2.60
2019-03-01T15:21:37.556Z,2.87
2019-03-01T15:24:11.799Z,2.70
2019-03-01T15:26:46.182Z,3.07
2019-03-01T15:29:18.711Z,3.00
2019-03-01T15:31:54.797Z,2.50
2019-03-01T15:34:25.857Z,2.57
2019-03-01T15:36:59.338Z,3.87
2019-03-01T15:39:32.327Z,2.70
2019-03-01T15:42:05.111Z,2.80
2019-03-01T15:44:38.297Z,2.23
2019-03-01T15:47:11.052Z,2.93
2019-03-01T15:49:44.249Z,2.50
2019-03-01T15:52:18.430Z,2.13
2019-03-01T15:54:51.473Z,2.43
2019-03-01T15:57:24.450Z,2.77
2019-03-01T15:59:57.333Z,2.40
2019-03-01T16:02:29.986Z,2.40
2019-03-01T16:05:03.173Z,2.20
2019-03-01T16:07:35.979Z,2.40
2019-03-01T16:10:10.670Z,2.60
2019-03-01T16:12:44.029Z,2.17
2019-03-01T16:15:20.047Z,1.80
2019-03-01T16:17:53.278Z,2.13
2019-03-01T16:20:28.536Z,2.27
2019-03-01T16:23:00.692Z,2.23
2019-03-01T16:25:33.829Z,1.93
2019-03-01T16:28:06.824Z,2.40
2019-03-01T16:30:39.649Z,2.10
2019-03-01T16:33:12.415Z,1.93
2019-03-01T16:35:48.411Z,3.30
2019-03-01T16:38:20.250Z,2.23
2019-03-01T16:40:53.131Z,2.80
2019-03-01T16:43:28.573Z,2.40
2019-03-01T16:46:00.662Z,2.20
2019-03-01T16:48:33.655Z,2.30
2019-03-01T16:51:06.867Z,2.80
2019-03-01T16:53:45.728Z,2.27
2019-03-01T16:56:18.871Z,2.10
2019-03-01T16:58:51.855Z,2.13
2019-03-01T17:01:26.047Z,2.60
2019-03-01T17:03:59.172Z,1.83
2019-03-01T17:06:32.481Z,1.90
2019-03-01T17:09:06.137Z,2.70
2019-03-01T17:11:41.555Z,2.17
2019-03-01T17:14:13.360Z,2.10
2019-03-01T17:16:46.708Z,2.63
2019-03-01T17:19:20.495Z,2.70
2019-03-01T17:21:53.734Z,2.40
2019-03-01T17:24:26.370Z,2.37
2019-03-01T17:27:01.975Z,2.80
2019-03-01T17:29:35.842Z,2.60
2019-03-01T17:32:08.247Z,2.33
2019-03-01T17:34:40.759Z,2.40
2019-03-01T17:37:13.807Z,2.53
2019-03-01T17:39:46.727Z,2.50
2019-03-01T17:42:20.680Z,3.00
2019-03-01T17:44:53.964Z,3.50
2019-03-01T17:47:27.072Z,2.40
2019-03-01T17:50:00.283Z,2.90
2019-03-01T17:52:34.379Z,2.50
2019-03-01T17:55:08.790Z,2.07
2019-03-01T17:57:41.884Z,2.17
2019-03-01T18:00:21.792Z,2.23
2019-03-01T18:02:54.801Z,3.07
2019-03-01T18:05:27.761Z,3.10
2019-03-01T18:08:03.796Z,2.90
2019-03-01T18:10:35.854Z,3.00
2019-03-01T18:13:09.518Z,2.60
2019-03-01T18:15:53.730Z,2.73
2019-03-01T18:18:26.796Z,2.60
2019-03-01T18:20:59.641Z,2.20
2019-03-01T18:23:34.254Z,2.53
2019-03-01T18:26:07.337Z,2.47
2019-03-01T18:28:40.330Z,2.47
2019-03-01T18:31:13.050Z,2.80
2019-03-01T18:33:45.968Z,2.70
2019-03-01T18:36:18.811Z,2.20
2019-03-01T18:38:51.592Z,2.40
2019-03-01T18:41:27.465Z,2.87
2019-03-01T18:43:59.758Z,2.97
2019-03-01T18:46:32.963Z,3.10
2019-03-01T18:49:07.287Z,3.03
2019-03-01T18:51:43.316Z,3.30
2019-03-01T18:54:14.422Z,3.07
2019-03-01T18:56:48.854Z,3.03
2019-03-01T18:59:24.872Z,4.10
2019-03-01T19:01:57.185Z,5.33
2019-03-01T19:04:30.247Z,5.00
2019-03-01T19:07:06.079Z,4.97
2019-03-01T19:09:39.251Z,4.17
2019-03-01T19:12:15.496Z,4.00
2019-03-01T19:14:51.493Z,4.27
2019-03-01T19:17:41.742Z,3.40
2019-03-01T19:20:26.492Z,3.27
2019-03-01T19:22:59.312Z,2.90
2019-03-01T19:25:33.530Z,3.20
2019-03-01T19:28:23.659Z,3.00
2019-03-01T19:30:59.917Z,2.90
2019-03-01T19:33:34.681Z,3.50
2019-03-01T19:36:09.982Z,3.00
2019-03-01T19:38:46.389Z,2.57
2019-03-01T19:41:33.576Z,2.30
2019-03-01T19:44:05.573Z,3.13
2019-03-01T19:46:38.824Z,2.63
2019-03-01T19:49:17.205Z,2.40
2019-03-01T19:51:50.304Z,2.70
2019-03-01T19:54:23.236Z,2.80
2019-03-01T19:57:01.574Z,2.40
2019-03-01T19:59:33.601Z,4.17
2019-03-01T20:02:06.852Z,2.80
2019-03-01T20:04:39.855Z,3.30
2019-03-01T20:07:15.939Z,1.87
2019-03-01T20:09:46.961Z,2.50
2019-03-01T20:12:19.777Z,2.40
2019-03-01T20:14:52.736Z,2.00
2019-03-01T20:17:25.522Z,1.90
2019-03-01T20:22:55.218Z,1.87
2019-03-01T20:25:32.001Z,1.50
2019-03-01T20:28:11.554Z,1.47
2019-03-01T20:30:43.559Z,1.97
2019-03-01T20:33:23.442Z,1.80
2019-03-01T20:35:56.026Z,1.80
2019-03-01T20:38:29.046Z,1.70
2019-03-01T20:41:03.150Z,1.73
2019-03-01T20:44:03.073Z,1.90
2019-03-01T20:46:17.080Z,1.27
2019-03-01T20:48:50.169Z,2.50
2019-03-01T20:51:27.158Z,1.80
2019-03-01T20:53:57.674Z,1.60
2019-03-01T20:56:41.422Z,2.00
2019-03-01T20:59:16.440Z,1.57
2019-03-01T21:01:50.238Z,1.77
2019-03-01T21:04:23.296Z,1.87
2019-03-01T21:06:56.235Z,2.07
2019-03-01T21:09:37.763Z,2.37
2019-03-01T21:12:09.495Z,1.83
2019-03-01T21:14:43.051Z,1.90
2019-03-01T21:17:20.339Z,1.43
2019-03-01T21:19:51.508Z,1.80
2019-03-01T21:22:27.464Z,1.70
2019-03-01T21:25:03.117Z,2.10
2019-03-01T21:27:34.794Z,1.57
2019-03-01T21:30:13.111Z,1.20
2019-03-01T21:32:46.941Z,1.27
2019-03-01T21:35:21.470Z,1.63
2019-03-01T21:37:55.254Z,1.30
2019-03-01T21:40:31.426Z,1.40
2019-03-01T21:43:03.911Z,1.10
2019-03-01T21:45:47.699Z,1.10
2019-03-01T21:48:29.900Z,1.20
2019-03-01T21:51:03.817Z,1.50
2019-03-01T21:53:39.743Z,1.10
2019-03-01T21:56:10.933Z,1.20
2019-03-01T21:58:43.835Z,1.20
2019-03-01T22:01:22.250Z,1.00
2019-03-01T22:03:55.407Z,1.50
2019-03-01T22:06:29.187Z,1.20
2019-03-01T22:09:02.234Z,1.00
2019-03-01T22:11:35.467Z,0.90
2019-03-01T22:14:20.239Z,1.00
2019-03-01T22:16:53.237Z,0.97
2019-03-01T22:19:30.451Z,0.90
2019-03-01T22:22:01.850Z,0.77
2019-03-01T22:24:34.965Z,1.50
2019-03-01T22:27:09.275Z,1.20
2019-03-01T22:30:04.899Z,1.43
2019-03-01T22:32:31.351Z,0.70
2019-03-01T22:35:08.576Z,0.90
2019-03-01T22:37:38.641Z,0.80
2019-03-01T22:40:13.398Z,0.80
2019-03-01T22:42:49.563Z,0.80
2019-03-01T22:45:26.388Z,0.63
2019-03-01T22:47:59.402Z,1.13
2019-03-01T22:50:34.067Z,0.70
2019-03-01T22:53:07.265Z,0.70
2019-03-01T22:55:59.719Z,0.70
2019-03-01T22:58:32.797Z,0.80
2019-03-01T23:01:07.571Z,0.80
2019-03-01T23:03:40.487Z,0.70
2019-03-01T23:06:14.655Z,0.90
2019-03-01T23:08:47.150Z,1.00
2019-03-01T23:11:19.720Z,0.80
2019-03-01T23:13:55.808Z,1.23
2019-03-01T23:16:27.358Z,1.30
2019-03-01T23:19:00.337Z,0.80
2019-03-01T23:21:35.912Z,0.70
2019-03-01T23:24:07.138Z,1.30
2019-03-01T23:26:39.828Z,1.10
2019-03-01T23:29:15.691Z,0.90
2019-03-01T23:31:47.119Z,1.00
2019-03-01T23:34:19.803Z,1.17
2019-03-01T23:36:52.867Z,0.80
2019-03-01T23:39:25.544Z,0.80
2019-03-01T23:41:58.271Z,0.80
2019-03-01T23:44:31.443Z,0.90
2019-03-01T23:47:04.245Z,0.80
2019-03-01T23:49:37.884Z,0.90
2019-03-01T23:52:10.604Z,0.90
2019-03-01T23:54:44.238Z,0.97
2019-03-01T23:57:17.317Z,0.70
2019-03-01T23:59:49.744Z,0.70
